Terminal Aerodrome Forecast
Issued by NWS

Home | Current Version | Previous Version | Text Only | Print | Product List | Glossary Off
Versions: 1 2 3 4 5 6 7 8 9 10 11 12 13 14 15

370
FTUS43 KFGF 271236 AAA
TAFBJI
TAF AMD
KBJI 271236Z 2713/2812 VRB02KT 4SM BR SCT002
      TEMPO 2713/2714 1/4SM FG BKN002
     FM271500 VRB02KT P6SM SCT025=

USA.gov is the U.S. government's official web portal to all federal, state and local government web resources and services.